Time;durP1;ratioP1;P1;durP2;ratioP2;P2;SDS_P1;SDS_P2;PMS_P1;PMS_P2;Temp;Humidity;BMP_temperature;BMP_pressure;BME280_temperature;BME280_humidity;BME280_pressure;Samples;Min_cycle;Max_cycle;Signal;HPM_P1;HPM_P2
2022/08/30 00:03:01;;;;;;;50.17;47.33;;;25.10;55.90;;;;;;5057755;28;20056;-77
2022/08/30 00:05:28;;;;;;;51.90;49.00;;;25.10;56.20;;;;;;5033929;28;20048;-77
2022/08/30 00:07:54;;;;;;;52.28;49.38;;;25.00;56.10;;;;;;5051075;28;20044;-77
2022/08/30 00:10:20;;;;;;;51.08;48.10;;;25.00;56.20;;;;;;5052037;28;20450;-77
2022/08/30 00:12:47;;;;;;;50.92;48.03;;;25.00;56.20;;;;;;5050712;28;20040;-77
2022/08/30 00:15:14;;;;;;;52.75;49.75;;;25.00;56.20;;;;;;5050361;28;20532;-77
2022/08/30 00:17:40;;;;;;;52.08;49.28;;;24.90;56.20;;;;;;5033510;28;20053;-77
2022/08/30 00:20:07;;;;;;;52.92;49.92;;;24.90;56.40;;;;;;5050168;28;20032;-77
2022/08/30 00:22:33;;;;;;;49.58;46.38;;;24.90;56.40;;;;;;5050752;28;20051;-77
2022/08/30 00:24:59;;;;;;;49.88;46.95;;;24.90;56.60;;;;;;5050444;28;20040;-77
2022/08/30 00:27:26;;;;;;;51.10;47.97;;;24.90;56.70;;;;;;5033821;28;20041;-77
2022/08/30 00:29:53;;;;;;;49.80;47.13;;;24.90;56.70;;;;;;5050394;28;20037;-77
2022/08/30 00:32:20;;;;;;;50.78;47.97;;;24.80;56.70;;;;;;5033436;28;20044;-77
2022/08/30 00:34:49;;;;;;;47.70;45.08;;;24.80;56.60;;;;;;5032954;28;20048;-77
2022/08/30 00:37:15;;;;;;;48.90;45.90;;;24.80;56.70;;;;;;5033390;28;20041;-77
2022/08/30 00:39:42;;;;;;;49.05;45.80;;;24.70;56.70;;;;;;5033688;28;20043;-77
2022/08/30 00:42:08;;;;;;;47.20;44.53;;;24.70;56.90;;;;;;5050043;28;20040;-77
2022/08/30 00:44:34;;;;;;;48.33;45.28;;;24.60;56.90;;;;;;5059529;28;20469;-77
2022/08/30 00:47:00;;;;;;;51.22;48.20;;;24.70;57.30;;;;;;5055956;28;20036;-77
2022/08/30 00:49:27;;;;;;;49.50;46.67;;;24.60;56.70;;;;;;5049802;28;20032;-77
2022/08/30 00:51:53;;;;;;;50.60;47.80;;;24.60;56.70;;;;;;5050175;28;20029;-77
2022/08/30 00:54:19;;;;;;;50.42;47.67;;;24.50;56.40;;;;;;5049901;28;20025;-77
2022/08/30 00:56:46;;;;;;;49.85;47.05;;;24.50;56.60;;;;;;5016814;28;20051;-77
2022/08/30 00:59:12;;;;;;;46.28;43.53;;;24.50;56.30;;;;;;5033475;28;20029;-77
2022/08/30 01:01:38;;;;;;;49.75;46.92;;;24.50;56.30;;;;;;5032732;28;20036;-76
2022/08/30 01:04:05;;;;;;;50.97;48.00;;;24.40;56.40;;;;;;5033298;28;20040;-77
2022/08/30 01:06:33;;;;;;;50.28;47.58;;;24.40;56.30;;;;;;5033410;28;20035;-77
2022/08/30 01:08:59;;;;;;;50.15;46.85;;;24.40;56.30;;;;;;5049895;28;20037;-77
2022/08/30 01:11:25;;;;;;;48.92;46.10;;;24.40;56.40;;;;;;5049706;28;20033;-77
2022/08/30 01:13:52;;;;;;;48.45;45.70;;;24.30;56.30;;;;;;5049830;28;20028;-77
2022/08/30 01:16:18;;;;;;;47.70;44.95;;;24.30;56.40;;;;;;5032381;28;20029;-77
2022/08/30 01:18:44;;;;;;;47.45;44.70;;;24.20;56.50;;;;;;5032772;28;20037;-77
2022/08/30 01:21:21;;;;;;;48.75;45.85;;;24.20;56.40;;;;;;5049484;28;20032;-77
2022/08/30 01:23:49;;;;;;;45.33;42.67;;;24.20;56.40;;;;;;5049501;28;20040;-77
2022/08/30 01:26:16;;;;;;;44.90;42.00;;;24.20;56.20;;;;;;5049508;28;20025;-77
2022/08/30 01:28:44;;;;;;;43.38;40.83;;;24.20;56.00;;;;;;5032988;28;20040;-77
2022/08/30 01:31:10;;;;;;;44.35;41.75;;;24.20;56.20;;;;;;5032551;28;20029;-77
2022/08/30 01:33:37;;;;;;;41.75;39.25;;;24.00;56.20;;;;;;5032334;28;20041;-77
2022/08/30 01:36:05;;;;;;;43.55;40.95;;;24.00;56.30;;;;;;5033119;28;20029;-77
2022/08/30 01:38:39;;;;;;;42.72;40.33;;;24.00;56.50;;;;;;5032912;28;20029;-76
2022/08/30 01:41:10;;;;;;;37.38;35.08;;;23.90;56.40;;;;;;5033148;28;20029;-77
2022/08/30 01:43:36;;;;;;;39.50;37.00;;;23.80;56.30;;;;;;5048957;28;20520;-76
2022/08/30 01:46:02;;;;;;;39.17;37.08;;;23.70;56.60;;;;;;5038098;28;20496;-77
2022/08/30 01:48:28;;;;;;;38.90;36.67;;;23.70;56.60;;;;;;5032491;28;20351;-77
2022/08/30 01:50:54;;;;;;;37.42;35.00;;;23.60;56.60;;;;;;5032329;28;20041;-77
2022/08/30 01:53:20;;;;;;;35.67;33.35;;;23.60;56.50;;;;;;5031977;28;20085;-77
2022/08/30 01:55:46;;;;;;;34.63;32.42;;;23.50;56.30;;;;;;5032275;28;20392;-76
2022/08/30 01:58:12;;;;;;;34.53;32.42;;;23.50;56.50;;;;;;5016063;28;20052;-77
2022/08/30 02:00:39;;;;;;;33.40;31.42;;;23.50;56.20;;;;;;5048549;28;20032;-77
2022/08/30 02:03:05;;;;;;;34.70;32.08;;;23.50;56.10;;;;;;5048815;28;20033;-77
2022/08/30 02:05:31;;;;;;;33.63;31.80;;;23.50;55.90;;;;;;5049216;28;20390;-77
2022/08/30 02:07:57;;;;;;;33.70;31.70;;;23.50;55.80;;;;;;5050259;28;20024;-77
2022/08/30 02:10:24;;;;;;;34.90;32.90;;;23.50;56.50;;;;;;5049050;28;20604;-77
2022/08/30 02:12:50;;;;;;;31.58;29.83;;;23.40;55.70;;;;;;5049155;28;20056;-77
2022/08/30 02:15:16;;;;;;;32.05;30.08;;;23.40;55.90;;;;;;5048706;28;20025;-77
2022/08/30 02:17:42;;;;;;;33.60;31.52;;;23.40;55.90;;;;;;5048676;28;20033;-77
2022/08/30 02:20:09;;;;;;;33.50;31.40;;;23.40;55.90;;;;;;5049027;28;20409;-77
2022/08/30 02:22:35;;;;;;;34.35;32.35;;;23.50;55.80;;;;;;5032365;28;20401;-77
2022/08/30 02:25:01;;;;;;;34.17;32.10;;;23.40;55.60;;;;;;5048869;28;20056;-77
2022/08/30 02:27:28;;;;;;;32.40;30.38;;;23.30;55.80;;;;;;5048915;28;20028;-77
2022/08/30 02:29:54;;;;;;;32.85;30.88;;;23.20;55.90;;;;;;5049014;28;20041;-76
2022/08/30 02:32:20;;;;;;;31.50;29.40;;;23.10;55.90;;;;;;5048056;28;20032;-77
2022/08/30 02:34:46;;;;;;;31.85;29.65;;;23.10;56.10;;;;;;5048756;28;20040;-77
2022/08/30 02:37:12;;;;;;;30.95;28.90;;;23.10;56.00;;;;;;5032537;28;20048;-77
2022/08/30 02:39:38;;;;;;;31.95;29.98;;;23.10;56.10;;;;;;5028817;28;20030;-77
2022/08/30 02:42:05;;;;;;;31.65;29.80;;;23.00;56.10;;;;;;5031976;28;20390;-77
2022/08/30 02:44:31;;;;;;;32.05;30.20;;;23.10;56.00;;;;;;5052121;28;20041;-77
2022/08/30 02:46:57;;;;;;;33.60;31.25;;;23.10;55.90;;;;;;5058168;28;20029;-77
2022/08/30 02:49:23;;;;;;;32.03;29.92;;;23.00;55.70;;;;;;5052389;28;20033;-77
2022/08/30 02:51:49;;;;;;;33.28;31.08;;;23.10;56.00;;;;;;5035916;28;20037;-77
2022/08/30 02:54:18;;;;;;;31.35;29.55;;;23.10;55.70;;;;;;5053397;28;20052;-77
2022/08/30 02:56:48;;;;;;;31.38;29.58;;;23.00;55.80;;;;;;5052248;28;20029;-77
2022/08/30 02:59:14;;;;;;;30.38;28.58;;;23.00;55.90;;;;;;5035376;28;20036;-77
2022/08/30 03:01:41;;;;;;;33.28;31.15;;;22.90;56.00;;;;;;5035142;28;20033;-77
2022/08/30 03:04:07;;;;;;;31.30;29.17;;;22.90;56.10;;;;;;5035491;28;20052;-77
2022/08/30 03:06:33;;;;;;;31.85;29.83;;;22.70;56.20;;;;;;5052316;28;20025;-77
2022/08/30 03:08:59;;;;;;;31.02;28.70;;;22.70;56.40;;;;;;5053224;28;20032;-77
2022/08/30 03:11:25;;;;;;;30.25;28.13;;;22.70;56.40;;;;;;5051807;28;20032;-76
2022/08/30 03:13:51;;;;;;;28.45;26.60;;;22.60;56.50;;;;;;5051933;28;20032;-77
2022/08/30 03:16:17;;;;;;;30.65;28.65;;;22.60;56.60;;;;;;5051352;28;20029;-77
2022/08/30 03:18:43;;;;;;;28.42;26.77;;;22.50;56.60;;;;;;5051914;28;20036;-77
2022/08/30 03:21:11;;;;;;;31.13;29.25;;;22.50;56.90;;;;;;5051945;28;20216;-77
2022/08/30 03:23:37;;;;;;;29.20;27.40;;;22.50;56.90;;;;;;5051646;28;20063;-77
2022/08/30 03:26:03;;;;;;;31.60;29.60;;;22.50;56.90;;;;;;5029577;28;20034;-77
2022/08/30 03:28:29;;;;;;;31.50;29.80;;;22.40;57.10;;;;;;5011741;28;20030;-77
2022/08/30 03:30:55;;;;;;;31.90;30.02;;;22.40;57.00;;;;;;5018350;28;20025;-77
2022/08/30 03:33:21;;;;;;;32.35;30.50;;;22.30;57.20;;;;;;5031654;28;20049;-77
2022/08/30 03:35:48;;;;;;;33.58;31.40;;;22.40;57.10;;;;;;5015532;28;20037;-76
2022/08/30 03:38:14;;;;;;;32.58;30.23;;;22.30;57.20;;;;;;5031774;28;20045;-77
2022/08/30 03:40:41;;;;;;;30.92;29.00;;;22.30;57.20;;;;;;5044338;28;20370;-77
2022/08/30 03:43:07;;;;;;;32.00;30.05;;;22.30;57.30;;;;;;5067620;28;20397;-77
2022/08/30 03:45:33;;;;;;;33.78;31.35;;;22.20;57.50;;;;;;5054390;28;20044;-77
2022/08/30 03:48:01;;;;;;;33.15;31.10;;;22.30;57.30;;;;;;5053337;28;20402;-77
2022/08/30 03:50:27;;;;;;;34.13;32.13;;;22.40;57.20;;;;;;5018626;28;20045;-77
2022/08/30 03:52:54;;;;;;;34.10;32.10;;;22.50;57.00;;;;;;5016830;28;20041;-77
2022/08/30 03:55:20;;;;;;;34.65;32.55;;;22.50;56.90;;;;;;5034583;28;20033;-77
2022/08/30 03:57:46;;;;;;;34.50;32.08;;;22.50;56.90;;;;;;5017678;28;20400;-77
2022/08/30 04:00:13;;;;;;;34.33;32.13;;;22.40;57.20;;;;;;5033476;28;20052;-77
2022/08/30 04:02:40;;;;;;;32.95;30.85;;;22.30;57.40;;;;;;5034089;28;20036;-77
2022/08/30 04:05:07;;;;;;;32.38;30.38;;;22.30;57.40;;;;;;5034390;28;20044;-77
2022/08/30 04:07:34;;;;;;;34.78;32.70;;;22.30;57.50;;;;;;5034182;28;20032;-77
2022/08/30 04:10:00;;;;;;;33.22;31.00;;;22.20;57.80;;;;;;5034139;28;20048;-77
2022/08/30 04:12:26;;;;;;;33.38;31.48;;;22.10;57.80;;;;;;5050412;28;20374;-76
2022/08/30 04:14:52;;;;;;;33.67;31.58;;;22.00;58.20;;;;;;5050887;28;20029;-77
2022/08/30 04:17:18;;;;;;;38.45;36.05;;;21.90;58.50;;;;;;5033929;28;20393;-77
2022/08/30 04:19:44;;;;;;;35.33;33.33;;;21.90;58.60;;;;;;5050594;28;20033;-76
2022/08/30 04:22:11;;;;;;;37.90;35.90;;;21.90;58.60;;;;;;5050110;28;20402;-77
2022/08/30 04:24:37;;;;;;;34.85;32.65;;;21.90;58.60;;;;;;5050647;28;20041;-76
2022/08/30 04:27:03;;;;;;;35.00;32.83;;;21.90;58.50;;;;;;5029934;28;20037;-77
2022/08/30 04:29:29;;;;;;;33.80;31.70;;;21.90;58.50;;;;;;5014271;28;20048;-77
2022/08/30 04:31:55;;;;;;;35.70;33.55;;;21.80;58.70;;;;;;5026768;28;20030;-77
2022/08/30 04:34:21;;;;;;;37.90;35.58;;;21.70;58.90;;;;;;5010702;28;20484;-76
2022/08/30 04:36:48;;;;;;;34.08;32.15;;;21.70;58.90;;;;;;5012045;28;20041;-77
2022/08/30 04:39:15;;;;;;;35.70;33.50;;;21.70;59.00;;;;;;5012705;28;20037;-76
2022/08/30 04:41:41;;;;;;;37.38;35.05;;;21.70;59.10;;;;;;5029551;28;20053;-77
2022/08/30 04:44:07;;;;;;;36.42;34.05;;;21.60;59.20;;;;;;5030036;28;20497;-77
2022/08/30 04:46:34;;;;;;;36.75;34.55;;;21.60;59.20;;;;;;5032353;28;20025;-76
2022/08/30 04:49:01;;;;;;;35.97;33.97;;;21.50;59.40;;;;;;5049909;28;20045;-76
2022/08/30 04:51:27;;;;;;;37.42;34.95;;;21.50;59.50;;;;;;5033679;28;20029;-76
2022/08/30 04:53:53;;;;;;;34.72;32.63;;;21.40;59.70;;;;;;5033594;28;20040;-77
2022/08/30 04:56:21;;;;;;;36.65;34.47;;;21.40;59.60;;;;;;5049507;28;20033;-77
2022/08/30 04:58:48;;;;;;;37.60;35.47;;;21.40;59.60;;;;;;5031647;28;20549;-77
2022/08/30 05:01:16;;;;;;;36.83;34.67;;;21.40;59.60;;;;;;5033041;28;20040;-77
2022/08/30 05:03:42;;;;;;;37.60;35.40;;;21.40;59.70;;;;;;5049560;28;20037;-77
2022/08/30 05:06:10;;;;;;;37.50;35.25;;;21.40;59.80;;;;;;5049788;28;20033;-77
2022/08/30 05:08:36;;;;;;;38.47;36.05;;;21.30;59.80;;;;;;5049978;28;20040;-77
2022/08/30 05:11:03;;;;;;;37.67;35.50;;;21.30;59.90;;;;;;5032503;28;20389;-77
2022/08/30 05:13:30;;;;;;;36.15;33.97;;;21.30;60.00;;;;;;5033042;28;20506;-77
2022/08/30 05:15:56;;;;;;;35.70;33.47;;;21.30;59.90;;;;;;5049430;28;20464;-77
2022/08/30 05:18:22;;;;;;;36.65;34.58;;;21.30;60.10;;;;;;5049809;28;20040;-77
2022/08/30 05:20:48;;;;;;;37.05;34.95;;;21.30;60.10;;;;;;5049702;28;20025;-77
2022/08/30 05:23:14;;;;;;;36.83;34.40;;;21.30;60.10;;;;;;5049583;28;20028;-77
2022/08/30 05:25:40;;;;;;;37.83;35.65;;;21.30;60.00;;;;;;5049009;28;20041;-77
2022/08/30 05:28:07;;;;;;;38.45;35.95;;;21.20;60.00;;;;;;5032775;28;20040;-77
2022/08/30 05:30:34;;;;;;;38.28;35.88;;;21.30;60.00;;;;;;5049182;28;20028;-77
2022/08/30 05:33:00;;;;;;;38.05;35.85;;;21.30;59.90;;;;;;5032703;28;20033;-77
2022/08/30 05:35:26;;;;;;;39.85;37.55;;;21.20;60.20;;;;;;5032351;28;20040;-76
2022/08/30 05:37:53;;;;;;;38.03;35.83;;;21.10;61.20;;;;;;5049580;28;20036;-77
2022/08/30 05:40:19;;;;;;;39.33;36.58;;;21.20;60.50;;;;;;5032394;28;20480;-77
2022/08/30 05:42:46;;;;;;;38.83;36.38;;;21.30;60.30;;;;;;5031372;28;20041;-77
2022/08/30 05:45:12;;;;;;;36.58;34.38;;;21.40;59.70;;;;;;5037656;28;20037;-77
2022/08/30 05:47:38;;;;;;;36.70;34.25;;;21.40;59.70;;;;;;5020805;28;20048;-77
2022/08/30 05:50:08;;;;;;;38.45;36.15;;;21.40;59.80;;;;;;5016126;28;20037;-76
2022/08/30 05:52:37;;;;;;;34.70;32.85;;;21.50;59.70;;;;;;5050528;28;20044;-77
2022/08/30 05:55:06;;;;;;;38.22;36.03;;;21.60;59.20;;;;;;5049096;28;20028;-77
2022/08/30 05:57:33;;;;;;;37.03;34.50;;;21.70;59.30;;;;;;5049253;28;20025;-77
2022/08/30 06:00:01;;;;;;;30.52;28.83;;;21.80;59.00;;;;;;5032796;28;20029;-77
2022/08/30 06:02:27;;;;;;;30.77;28.95;;;21.80;58.60;;;;;;5048666;28;20450;-77
2022/08/30 06:04:53;;;;;;;33.97;31.63;;;21.70;58.90;;;;;;5049145;28;20045;-77
2022/08/30 06:07:19;;;;;;;35.83;33.83;;;21.50;59.30;;;;;;5049133;28;20028;-77
2022/08/30 06:09:45;;;;;;;34.72;32.72;;;21.60;59.30;;;;;;5049013;28;20041;-77
2022/08/30 06:12:11;;;;;;;34.47;32.38;;;21.60;59.30;;;;;;5032474;28;20037;-77
2022/08/30 06:14:38;;;;;;;33.53;31.23;;;21.60;59.10;;;;;;5049121;28;20032;-77
2022/08/30 06:17:05;;;;;;;35.63;33.10;;;21.60;59.30;;;;;;5052192;28;20029;-77
2022/08/30 06:19:31;;;;;;;35.42;32.88;;;21.50;59.60;;;;;;5052936;28;20029;-77
2022/08/30 06:21:57;;;;;;;36.17;33.95;;;21.50;59.60;;;;;;5052762;28;20040;-77
2022/08/30 06:24:23;;;;;;;38.40;35.58;;;21.50;59.70;;;;;;5036165;28;20486;-77
2022/08/30 06:26:49;;;;;;;38.05;35.83;;;21.50;59.70;;;;;;5032647;28;20048;-77
2022/08/30 06:29:17;;;;;;;38.63;36.42;;;21.50;59.60;;;;;;5049484;28;20413;-77
2022/08/30 06:31:43;;;;;;;35.72;33.55;;;21.60;59.30;;;;;;5026551;28;20074;-77
2022/08/30 06:34:09;;;;;;;31.60;29.80;;;21.70;59.30;;;;;;5029144;28;20037;-77
2022/08/30 06:36:35;;;;;;;33.75;31.67;;;21.50;59.20;;;;;;5012738;28;20036;-77
2022/08/30 06:39:02;;;;;;;33.58;31.20;;;21.40;59.60;;;;;;5014419;28;20034;-77
2022/08/30 06:41:30;;;;;;;37.13;34.97;;;21.40;59.80;;;;;;5015838;28;20029;-77
2022/08/30 06:43:56;;;;;;;34.53;32.33;;;21.40;59.90;;;;;;5032046;28;20076;-77
2022/08/30 06:46:24;;;;;;;34.15;31.90;;;21.40;59.80;;;;;;5049549;28;20033;-77
2022/08/30 06:48:51;;;;;;;32.75;30.75;;;21.50;59.70;;;;;;5051998;28;20120;-77
2022/08/30 06:51:43;;;;;;;31.83;29.98;;;21.50;59.50;;;;;;5018950;28;20490;-77
2022/08/30 06:54:10;;;;;;;38.05;35.42;;;21.40;59.50;;;;;;5050773;28;20048;-77
2022/08/30 06:56:36;;;;;;;38.40;35.80;;;21.30;60.20;;;;;;5035942;28;20080;-77
2022/08/30 06:59:02;;;;;;;37.42;34.15;;;21.50;60.20;;;;;;5052221;28;20029;-77
2022/08/30 07:01:28;;;;;;;35.25;32.65;;;21.50;60.10;;;;;;5051874;28;20037;-77
2022/08/30 07:03:55;;;;;;;36.70;34.13;;;21.40;60.10;;;;;;5052156;28;20040;-77
2022/08/30 07:06:21;;;;;;;34.95;32.53;;;21.50;59.90;;;;;;5053029;28;20036;-77
2022/08/30 07:08:49;;;;;;;36.35;34.15;;;21.40;60.00;;;;;;5035443;28;20052;-76
2022/08/30 07:11:26;;;;;;;33.10;31.23;;;21.40;60.30;;;;;;5035661;28;20405;-77
2022/08/30 07:13:52;;;;;;;35.70;33.38;;;21.40;60.30;;;;;;5035517;28;20394;-77
2022/08/30 07:16:18;;;;;;;32.70;30.50;;;21.40;60.20;;;;;;5034608;28;20033;-77
2022/08/30 07:18:50;;;;;;;37.65;35.22;;;21.30;60.30;;;;;;5051870;28;20024;-77
2022/08/30 07:21:18;;;;;;;36.58;33.67;;;21.30;60.80;;;;;;5035450;28;20045;-77
2022/08/30 07:23:45;;;;;;;34.92;32.75;;;21.40;60.40;;;;;;5035011;28;20049;-76
2022/08/30 07:26:12;;;;;;;36.17;34.08;;;21.40;60.00;;;;;;5051218;28;20044;-77
2022/08/30 07:28:39;;;;;;;32.80;30.83;;;21.40;60.40;;;;;;5035300;28;20044;-77
2022/08/30 07:31:06;;;;;;;30.75;29.05;;;21.40;60.50;;;;;;5050927;28;20040;-76
2022/08/30 07:33:32;;;;;;;33.83;31.63;;;21.40;60.20;;;;;;5034861;28;20040;-77
2022/08/30 07:35:58;;;;;;;31.45;29.60;;;21.40;60.40;;;;;;5034648;28;20037;-77
2022/08/30 07:38:27;;;;;;;32.38;29.90;;;21.50;60.40;;;;;;5018498;28;20302;-77
2022/08/30 07:40:53;;;;;;;31.35;29.25;;;21.50;60.20;;;;;;5034469;28;20037;-77
2022/08/30 07:43:19;;;;;;;29.88;28.08;;;21.50;60.00;;;;;;5051295;28;20025;-76
2022/08/30 07:45:46;;;;;;;29.50;27.70;;;21.60;60.10;;;;;;5056694;28;20480;-77
2022/08/30 07:48:12;;;;;;;31.33;29.13;;;21.70;59.80;;;;;;5018420;28;20490;-77
2022/08/30 07:50:41;;;;;;;32.05;29.83;;;21.80;59.60;;;;;;5017871;28;20520;-77
2022/08/30 07:53:08;;;;;;;32.03;29.52;;;21.90;59.20;;;;;;5034275;28;20037;-77
2022/08/30 07:55:34;;;;;;;31.52;29.63;;;22.00;59.20;;;;;;5033988;28;20044;-77
2022/08/30 07:58:00;;;;;;;32.10;29.60;;;22.10;58.90;;;;;;5034163;28;20041;-77
2022/08/30 08:00:26;;;;;;;31.95;29.85;;;22.30;58.70;;;;;;5033333;28;20041;-77
2022/08/30 08:02:52;;;;;;;30.75;28.58;;;22.40;58.00;;;;;;5050996;28;20094;-77
2022/08/30 08:05:18;;;;;;;31.17;29.02;;;22.50;57.70;;;;;;5050675;28;20033;-77
2022/08/30 08:07:44;;;;;;;29.73;27.90;;;22.60;57.60;;;;;;5050898;28;20037;-77
2022/08/30 08:10:12;;;;;;;31.45;29.55;;;22.70;57.40;;;;;;5034218;28;20048;-77
2022/08/30 08:12:39;;;;;;;34.47;31.98;;;22.80;57.40;;;;;;5050950;28;20017;-77
2022/08/30 08:15:05;;;;;;;32.97;30.77;;;23.00;57.10;;;;;;5050270;28;20382;-77
2022/08/30 08:17:31;;;;;;;35.90;33.70;;;23.10;57.20;;;;;;5050791;28;20025;-77
2022/08/30 08:19:57;;;;;;;35.22;32.53;;;23.30;56.70;;;;;;5033702;28;20045;-77
2022/08/30 08:22:23;;;;;;;36.15;33.75;;;23.30;56.40;;;;;;5050497;28;20171;-77
2022/08/30 08:24:49;;;;;;;36.63;34.42;;;23.50;56.50;;;;;;5050362;28;20040;-76
2022/08/30 08:27:16;;;;;;;35.47;32.83;;;23.50;56.30;;;;;;5034046;28;20055;-77
2022/08/30 08:29:42;;;;;;;37.97;35.70;;;23.70;56.10;;;;;;5033547;28;20037;-77
2022/08/30 08:32:08;;;;;;;35.53;33.45;;;23.80;56.10;;;;;;5017100;28;20037;-77
2022/08/30 08:34:35;;;;;;;36.60;34.00;;;23.90;55.70;;;;;;5016847;28;20041;-77
2022/08/30 08:37:01;;;;;;;35.83;33.65;;;23.90;55.30;;;;;;5033418;28;20037;-77
2022/08/30 08:39:27;;;;;;;38.55;35.88;;;23.90;55.70;;;;;;5016694;28;20056;-77
2022/08/30 08:42:05;;;;;;;36.85;34.53;;;24.00;56.00;;;;;;5050435;28;20029;-77
2022/08/30 08:44:38;;;;;;;39.25;36.60;;;24.10;55.70;;;;;;5051283;28;20036;-77
2022/08/30 08:47:04;;;;;;;39.80;37.55;;;24.20;55.50;;;;;;5056939;28;20053;-78
2022/08/30 08:49:30;;;;;;;38.70;36.35;;;24.20;55.60;;;;;;5051397;28;20474;-77
2022/08/30 08:54:46;;;;;;;35.03;33.00;;;24.60;55.00;;;;;;5039205;28;20028;-77
2022/08/30 08:57:12;;;;;;;37.88;35.80;;;24.60;54.70;;;;;;5017387;28;20783;-77
2022/08/30 08:59:38;;;;;;;40.00;37.67;;;24.60;55.10;;;;;;5016862;28;20473;-77
2022/08/30 09:02:26;;;;;;;39.63;37.22;;;24.70;55.00;;;;;;5032103;28;20040;-77
2022/08/30 09:04:54;;;;;;;36.53;34.42;;;24.90;54.80;;;;;;5049850;28;20029;-77
2022/08/30 09:07:23;;;;;;;39.15;36.85;;;25.00;54.20;;;;;;5049838;28;20021;-77
2022/08/30 09:09:49;;;;;;;38.28;35.97;;;25.00;54.60;;;;;;5033132;28;20044;-77
2022/08/30 09:12:15;;;;;;;43.25;40.33;;;25.20;54.10;;;;;;5049597;28;20029;-77
2022/08/30 09:14:46;;;;;;;42.95;40.45;;;25.40;54.00;;;;;;5049857;28;20033;-77
2022/08/30 09:17:16;;;;;;;45.53;42.83;;;25.60;53.60;;;;;;5048922;28;20029;-77
2022/08/30 09:19:44;;;;;;;46.75;44.10;;;25.80;53.60;;;;;;5049700;28;20397;-77
2022/08/30 09:22:24;;;;;;;47.58;44.92;;;25.80;53.70;;;;;;5049274;28;20465;-77
2022/08/30 09:25:05;;;;;;;47.47;44.85;;;25.90;53.10;;;;;;5048649;28;20466;-77
2022/08/30 09:27:32;;;;;;;45.50;42.58;;;26.10;53.00;;;;;;5009849;28;20037;-77
2022/08/30 09:30:00;;;;;;;47.92;44.92;;;26.10;53.40;;;;;;4994107;28;20478;-77
2022/08/30 09:32:38;;;;;;;44.55;41.85;;;26.20;53.30;;;;;;5008818;28;20038;-77
2022/08/30 09:35:07;;;;;;;45.30;42.47;;;26.10;52.80;;;;;;5009817;28;20037;-77
2022/08/30 09:37:36;;;;;;;42.22;39.72;;;25.80;53.90;;;;;;5009672;28;20390;-77
2022/08/30 09:40:20;;;;;;;41.25;38.95;;;26.00;53.40;;;;;;5017103;28;20025;-77
2022/08/30 09:42:58;;;;;;;47.50;44.40;;;26.10;53.30;;;;;;5029468;28;20382;-77
2022/08/30 09:45:30;;;;;;;50.25;47.25;;;26.30;53.30;;;;;;5045974;28;20037;-77
2022/08/30 09:47:56;;;;;;;51.08;48.38;;;26.60;52.60;;;;;;5016084;28;20481;-77
2022/08/30 09:50:23;;;;;;;46.22;43.53;;;26.70;52.40;;;;;;5034713;28;20045;-77
2022/08/30 09:52:59;;;;;;;44.83;42.10;;;26.50;52.70;;;;;;5037038;28;20493;-77
2022/08/30 09:55:58;;;;;;;52.45;49.67;;;26.50;53.00;;;;;;5036436;28;20044;-77
2022/08/30 09:58:47;;;;;;;48.03;45.42;;;26.70;52.40;;;;;;4999074;28;20083;-77
2022/08/30 10:01:26;;;;;;;49.67;46.90;;;26.70;52.80;;;;;;5031207;28;20037;-77
2022/08/30 10:04:27;;;;;;;52.85;49.65;;;26.80;52.50;;;;;;5015457;28;20041;-77
2022/08/30 10:06:57;;;;;;;49.97;47.28;;;27.20;52.40;;;;;;5015718;28;20133;-77
2022/08/30 10:09:33;;;;;;;56.28;53.10;;;27.20;51.50;;;;;;4999114;28;20180;-78
2022/08/30 10:12:10;;;;;;;54.80;51.80;;;27.30;51.50;;;;;;5015378;28;20037;-78
2022/08/30 10:14:49;;;;;;;59.47;56.25;;;27.40;52.00;;;;;;5015446;28;20037;-77
2022/08/30 10:17:30;;;;;;;541.90;289.35;;;27.50;51.70;;;;;;5014907;28;20033;-77
2022/08/30 10:20:05;;;;;;;55.17;52.20;;;27.70;50.80;;;;;;5031460;28;20045;-77
2022/08/30 10:22:47;;;;;;;55.80;52.47;;;27.70;50.80;;;;;;5015139;28;20042;-78
2022/08/30 10:25:25;;;;;;;1999.90;999.90;;;27.70;51.30;;;;;;5012017;28;20061;-78
2022/08/30 10:28:03;;;;;;;1026.95;525.45;;;28.00;50.60;;;;;;4996773;28;20571;-78
2022/08/30 10:30:31;;;;;;;56.03;52.22;;;28.00;50.30;;;;;;4976472;28;20030;-78
2022/08/30 10:33:04;;;;;;;55.22;52.25;;;27.80;50.80;;;;;;4976115;28;20034;-78
2022/08/30 10:35:41;;;;;;;56.67;53.38;;;28.00;50.40;;;;;;4997945;28;20034;-78
2022/08/30 10:38:24;;;;;;;1999.90;999.90;;;28.10;50.50;;;;;;5012936;28;20037;-78
2022/08/30 10:41:18;;;;;;;54.70;51.50;;;28.30;50.20;;;;;;5036096;28;20390;-78
2022/08/30 10:44:15;;;;;;;57.95;54.75;;;28.30;50.10;;;;;;5032177;28;20021;-78
2022/08/30 10:47:16;;;;;;;1999.90;999.90;;;28.40;49.60;;;;;;5042540;28;20049;-78
2022/08/30 10:49:46;;;;;;;1999.90;999.90;;;28.50;49.50;;;;;;5032549;28;20053;-78
2022/08/30 10:52:29;;;;;;;1999.90;999.90;;;28.60;49.90;;;;;;4999904;28;20033;-78
2022/08/30 10:55:08;;;;;;;1999.90;999.90;;;28.90;50.00;;;;;;5032606;28;20036;-78
2022/08/30 10:57:34;;;;;;;1999.90;999.90;;;29.10;48.80;;;;;;5016106;28;20025;-78
2022/08/30 11:00:05;;;;;;;1999.90;999.90;;;29.40;49.10;;;;;;5016144;28;20029;-78
2022/08/30 11:02:43;;;;;;;1999.90;999.90;;;29.60;48.40;;;;;;4998205;28;20033;-78
2022/08/30 11:05:54;;;;;;;1999.90;999.90;;;29.70;48.20;;;;;;5015763;28;20050;-78
2022/08/30 11:08:26;;;;;;;1999.90;999.90;;;29.70;47.70;;;;;;4975432;28;20046;-78
2022/08/30 11:11:30;;;;;;;1999.90;999.90;;;29.90;47.70;;;;;;4991728;28;20034;-78
2022/08/30 11:13:56;;;;;;;1999.90;999.90;;;29.70;47.50;;;;;;4977773;28;20034;-78
2022/08/30 11:16:39;;;;;;;1999.90;999.90;;;29.40;48.40;;;;;;4985783;28;20026;-78
2022/08/30 11:19:35;;;;;;;1999.90;999.90;;;29.20;48.50;;;;;;4995355;28;20490;-78
2022/08/30 11:22:23;;;;;;;1999.90;999.90;;;29.30;48.60;;;;;;5009898;28;20375;-78
2022/08/30 11:24:59;;;;;;;1999.90;999.90;;;29.40;48.70;;;;;;4996436;28;20042;-78
2022/08/30 11:27:43;;;;;;;1999.90;999.90;;;29.50;48.50;;;;;;5013811;28;20037;-78
2022/08/30 11:30:24;;;;;;;1999.90;999.90;;;29.50;48.20;;;;;;5030014;28;20029;-78
2022/08/30 11:33:11;;;;;;;1999.90;999.90;;;29.60;48.40;;;;;;5030614;28;20017;-78
2022/08/30 11:35:46;;;;;;;1999.90;999.90;;;29.70;47.50;;;;;;5013801;28;20037;-78
2022/08/30 11:38:24;;;;;;;1999.90;999.90;;;29.80;47.90;;;;;;4997947;28;20045;-78
2022/08/30 11:41:11;;;;;;;1999.90;999.90;;;29.60;47.90;;;;;;5013655;28;20057;-78
2022/08/30 11:43:38;;;;;;;1999.90;999.90;;;29.60;47.40;;;;;;5019868;28;20043;-78
2022/08/30 11:46:26;;;;;;;1999.90;999.90;;;29.70;47.50;;;;;;5058554;28;20512;-78
2022/08/30 11:48:59;;;;;;;1999.90;999.90;;;29.80;47.30;;;;;;5052535;28;20056;-78
2022/08/30 11:51:47;;;;;;;1999.90;999.90;;;30.00;47.70;;;;;;5034100;28;20040;-78
2022/08/30 11:54:41;;;;;;;1999.90;999.90;;;30.30;46.60;;;;;;5052573;28;20024;-78
2022/08/30 11:57:32;;;;;;;1999.90;999.90;;;30.20;46.20;;;;;;5052137;28;20036;-78
2022/08/30 12:00:08;;;;;;;;;;;30.30;46.10;;;;;;5051410;28;20048;-78
2022/08/30 12:02:45;;;;;;;1999.90;999.90;;;30.40;45.90;;;;;;5034322;28;19916;-78
2022/08/30 12:05:48;;;;;;;1999.90;999.90;;;30.60;46.00;;;;;;5051023;28;20048;-78
2022/08/30 12:08:22;;;;;;;1999.90;999.90;;;30.70;45.30;;;;;;5050743;28;20097;-78
2022/08/30 12:11:01;;;;;;;1999.90;999.90;;;30.40;45.80;;;;;;5051775;28;20033;-78
2022/08/30 12:13:47;;;;;;;1999.90;999.90;;;30.40;46.10;;;;;;5017041;28;20049;-78
2022/08/30 12:16:33;;;;;;;1999.90;999.90;;;30.50;45.00;;;;;;5042770;28;20033;-78
2022/08/30 12:19:14;;;;;;;1999.90;999.90;;;30.60;45.20;;;;;;5034438;28;20049;-78
2022/08/30 12:21:40;;;;;;;1999.90;999.90;;;30.80;45.40;;;;;;5033694;28;20037;-78
2022/08/30 12:24:26;;;;;;;1999.90;999.90;;;31.10;45.20;;;;;;5050865;28;20041;-78
2022/08/30 12:26:52;;;;;;;1999.90;999.90;;;31.40;44.60;;;;;;5050614;28;20033;-78
2022/08/30 12:29:27;;;;;;;1999.90;999.90;;;31.60;43.90;;;;;;5050763;28;20234;-78
2022/08/30 12:31:53;;;;;;;1999.90;999.90;;;31.90;43.60;;;;;;5050324;28;20493;-78
2022/08/30 12:34:44;;;;;;;1999.90;999.90;;;32.10;42.60;;;;;;5033871;28;20041;-78
2022/08/30 12:37:26;;;;;;;1999.90;999.90;;;32.00;42.90;;;;;;5036396;28;20044;-78
2022/08/30 12:40:07;;;;;;;1999.90;999.90;;;31.90;42.90;;;;;;5051293;28;20025;-78
2022/08/30 12:42:35;;;;;;;1999.90;999.90;;;31.80;42.90;;;;;;5050475;28;20044;-78